Ajo, Arizona
Current Conditions -  °F | °C
As of 10:15 AM on Thursday 27 Nov 2014 (Local Time) from KBXK Reporting Station
Clear Clear  
Wind Chill: 64°   Ceiling: Unl
Heat Index: 64°   Visibility: 10mi
Dew Point: 23°   Wind: 0mph
Humidity: 21%   Direction: NA
Pressure: 30.22"   Gusts: NA
Location:  32.37°N, 112.86°W
Report Text: KBXK 271715Z AUTO 00000KT 10SM CLR 18/M05 A3022 RMK AO1
Loading
Personal Weather Stations






























Interactive Weather Map New forecast layout! Learn more

10-Day Weather Forecast

Advertisements
Track Severe Weather on mobile